createdAt,value
2018-07-02T00:01:07.026Z,25.77
2018-07-02T00:03:34.527Z,25.76
2018-07-02T00:09:03.896Z,25.93
2018-07-02T00:11:32.146Z,25.96
2018-07-02T00:13:59.644Z,25.87
2018-07-02T00:16:27.102Z,25.76
2018-07-02T00:18:54.614Z,25.75
2018-07-02T00:21:22.106Z,25.69
2018-07-02T00:23:49.696Z,25.68
2018-07-02T00:26:17.172Z,25.64
2018-07-02T00:28:44.689Z,25.63
2018-07-02T00:31:12.576Z,25.65
2018-07-02T00:33:40.001Z,25.67
2018-07-02T00:36:08.441Z,25.69
2018-07-02T00:38:36.881Z,25.67
2018-07-02T00:41:04.372Z,25.73
2018-07-02T00:43:31.870Z,25.78
2018-07-02T00:45:59.396Z,25.73
2018-07-02T00:48:26.890Z,25.62
2018-07-02T00:50:54.367Z,25.56
2018-07-02T00:53:21.981Z,25.59
2018-07-02T00:55:49.491Z,25.58
2018-07-02T00:58:17.035Z,25.60
2018-07-02T01:00:44.484Z,25.51
2018-07-02T01:03:11.928Z,25.49
2018-07-02T01:05:39.381Z,25.45
2018-07-02T01:08:06.817Z,25.50
2018-07-02T01:10:34.430Z,25.50
2018-07-02T01:13:01.934Z,25.44
2018-07-02T01:15:29.455Z,25.43
2018-07-02T01:17:56.934Z,25.41
2018-07-02T01:20:24.366Z,25.39
2018-07-02T01:22:51.769Z,25.34
2018-07-02T01:25:19.240Z,25.35
2018-07-02T01:27:46.723Z,25.31
2018-07-02T01:30:14.183Z,25.31
2018-07-02T01:32:41.691Z,25.25
2018-07-02T01:35:09.222Z,25.26
2018-07-02T01:37:36.685Z,25.14
2018-07-02T01:40:04.148Z,25.14
2018-07-02T01:42:31.645Z,25.17
2018-07-02T01:44:59.134Z,25.18
2018-07-02T01:47:26.617Z,25.16
2018-07-02T01:49:54.092Z,25.07
2018-07-02T01:52:21.551Z,25.08
2018-07-02T01:54:49.065Z,25.14
2018-07-02T01:57:16.508Z,25.24
2018-07-02T01:59:43.960Z,25.26
2018-07-02T02:02:11.467Z,25.23
2018-07-02T02:04:38.910Z,25.04
2018-07-02T02:07:06.392Z,25.01
2018-07-02T02:09:33.829Z,25.02
2018-07-02T02:12:01.276Z,25.04
2018-07-02T02:14:28.738Z,24.90
2018-07-02T02:16:56.275Z,24.95
2018-07-02T02:19:23.729Z,25.04
2018-07-02T02:21:51.200Z,25.07
2018-07-02T02:24:18.688Z,24.99
2018-07-02T02:26:46.964Z,24.93
2018-07-02T02:29:14.452Z,24.93
2018-07-02T02:31:41.931Z,24.94
2018-07-02T02:34:09.396Z,24.86
2018-07-02T02:36:36.858Z,24.83
2018-07-02T02:39:04.355Z,24.85
2018-07-02T02:41:31.871Z,24.87
2018-07-02T02:43:59.464Z,24.77
2018-07-02T02:46:26.913Z,24.66
2018-07-02T02:48:54.393Z,24.63
2018-07-02T02:51:21.924Z,24.67
2018-07-02T02:53:49.368Z,24.67
2018-07-02T02:56:16.798Z,24.70
2018-07-02T02:58:44.296Z,24.71
2018-07-02T03:01:11.881Z,24.71
2018-07-02T03:03:39.368Z,24.71
2018-07-02T03:06:06.795Z,24.67
2018-07-02T03:08:34.234Z,24.57
2018-07-02T03:11:01.689Z,24.46
2018-07-02T03:13:29.191Z,24.47
2018-07-02T03:15:56.696Z,24.41
2018-07-02T03:18:29.596Z,24.39
2018-07-02T03:20:57.045Z,24.44
2018-07-02T03:23:24.511Z,24.42
2018-07-02T03:25:52.035Z,24.37
2018-07-02T03:28:19.496Z,24.35
2018-07-02T03:30:47.075Z,24.36
2018-07-02T03:33:14.575Z,24.32
2018-07-02T03:35:42.093Z,24.34
2018-07-02T03:38:09.596Z,24.31
2018-07-02T03:40:37.106Z,24.37
2018-07-02T03:43:04.558Z,24.41
2018-07-02T03:45:32.036Z,24.40
2018-07-02T03:47:59.528Z,24.37
2018-07-02T03:50:27.030Z,24.41
2018-07-02T03:52:54.633Z,24.40
2018-07-02T03:55:22.153Z,24.26
2018-07-02T03:57:49.671Z,24.24
2018-07-02T04:00:17.166Z,24.21
2018-07-02T04:02:44.599Z,24.15
2018-07-02T04:05:12.243Z,24.07
2018-07-02T04:07:39.779Z,24.08
2018-07-02T04:10:07.306Z,24.18
2018-07-02T04:12:34.832Z,24.20
2018-07-02T04:15:02.325Z,24.03
2018-07-02T04:17:29.839Z,24.04
2018-07-02T04:19:57.441Z,24.10
2018-07-02T04:22:24.931Z,24.07
2018-07-02T04:24:52.450Z,24.04
2018-07-02T04:27:19.983Z,24.03
2018-07-02T04:29:47.664Z,24.02
2018-07-02T04:32:15.134Z,23.95
2018-07-02T04:34:42.672Z,23.81
2018-07-02T04:37:10.205Z,23.82
2018-07-02T04:39:37.651Z,23.84
2018-07-02T04:42:05.204Z,23.92
2018-07-02T04:44:32.690Z,23.95
2018-07-02T04:47:00.207Z,24.03
2018-07-02T04:49:27.685Z,24.16
2018-07-02T04:51:55.207Z,24.21
2018-07-02T04:54:22.827Z,24.23
2018-07-02T04:56:50.389Z,24.35
2018-07-02T04:59:18.022Z,24.44
2018-07-02T05:01:45.496Z,24.47
2018-07-02T05:04:13.164Z,24.57
2018-07-02T05:06:40.670Z,24.58
2018-07-02T05:09:08.142Z,24.66
2018-07-02T05:11:35.699Z,24.79
2018-07-02T05:14:03.444Z,24.89
2018-07-02T05:16:30.896Z,24.92
2018-07-02T05:18:58.746Z,25.00
2018-07-02T05:21:26.208Z,25.06
2018-07-02T05:23:53.765Z,25.21
2018-07-02T05:26:21.404Z,25.39
2018-07-02T05:28:48.847Z,25.51
2018-07-02T05:31:16.378Z,25.52
2018-07-02T05:33:43.840Z,25.47
2018-07-02T05:36:11.337Z,25.59
2018-07-02T05:38:38.814Z,25.65
2018-07-02T05:41:06.301Z,25.68
2018-07-02T05:43:33.791Z,25.71
2018-07-02T05:46:01.357Z,25.79
2018-07-02T05:48:28.850Z,25.81
2018-07-02T05:50:56.359Z,25.71
2018-07-02T05:53:23.837Z,25.49
2018-07-02T05:55:51.282Z,25.47
2018-07-02T05:58:18.821Z,25.48
2018-07-02T06:00:46.400Z,25.63
2018-07-02T06:03:13.867Z,25.85
2018-07-02T06:05:41.456Z,26.10
2018-07-02T06:08:09.139Z,26.10
2018-07-02T06:10:36.706Z,26.15
2018-07-02T06:13:04.381Z,26.18
2018-07-02T06:15:32.336Z,26.16
2018-07-02T06:17:59.780Z,26.09
2018-07-02T06:20:27.746Z,26.00
2018-07-02T06:22:55.280Z,26.01
2018-07-02T06:25:22.766Z,26.10
2018-07-02T06:27:50.336Z,26.29
2018-07-02T06:30:17.816Z,26.21
2018-07-02T06:32:45.442Z,26.15
2018-07-02T06:35:12.922Z,26.38
2018-07-02T06:37:40.416Z,26.63
2018-07-02T06:40:08.056Z,26.72
2018-07-02T06:42:35.523Z,26.77
2018-07-02T06:45:02.953Z,26.86
2018-07-02T06:47:30.527Z,26.95
2018-07-02T06:49:58.007Z,27.06
2018-07-02T06:54:59.362Z,27.07
2018-07-02T06:57:26.866Z,27.22
2018-07-02T06:59:54.372Z,27.27
2018-07-02T07:02:21.904Z,27.46
2018-07-02T07:04:49.375Z,27.42
2018-07-02T07:07:16.819Z,27.49
2018-07-02T07:09:44.501Z,27.54
2018-07-02T07:12:11.983Z,27.64
2018-07-02T07:14:39.499Z,27.47
2018-07-02T07:17:06.948Z,27.27
2018-07-02T07:19:34.386Z,27.17
2018-07-02T07:22:02.021Z,27.13
2018-07-02T07:24:30.034Z,27.25
2018-07-02T07:26:57.621Z,27.76
2018-07-02T07:29:26.091Z,28.09
2018-07-02T07:31:53.550Z,28.63
2018-07-02T07:34:21.050Z,28.41
2018-07-02T07:36:48.501Z,28.04
2018-07-02T07:39:16.032Z,28.58
2018-07-02T07:41:43.485Z,28.98
2018-07-02T07:44:10.976Z,29.42
2018-07-02T07:46:38.410Z,29.59
2018-07-02T07:49:05.887Z,29.74
2018-07-02T07:51:33.720Z,29.36
2018-07-02T07:54:01.195Z,29.18
2018-07-02T07:56:28.692Z,29.44
2018-07-02T07:58:56.248Z,29.87
2018-07-02T08:01:23.767Z,30.33
2018-07-02T08:03:51.261Z,29.95
2018-07-02T08:06:18.768Z,29.69
2018-07-02T08:08:46.252Z,30.14
2018-07-02T08:11:13.824Z,30.55
2018-07-02T08:13:41.253Z,30.46
2018-07-02T08:16:08.743Z,30.28
2018-07-02T08:18:36.199Z,30.49
2018-07-02T08:21:03.683Z,30.77
2018-07-02T08:23:31.188Z,30.80
2018-07-02T08:25:59.018Z,30.94
2018-07-02T08:28:26.527Z,31.06
2018-07-02T08:30:54.013Z,31.14
2018-07-02T08:33:21.497Z,31.24
2018-07-02T08:35:48.919Z,31.39
2018-07-02T08:38:16.403Z,31.21
2018-07-02T08:40:43.844Z,31.68
2018-07-02T08:43:11.463Z,31.81
2018-07-02T08:45:38.934Z,31.75
2018-07-02T08:48:06.384Z,31.58
2018-07-02T08:50:33.841Z,31.73
2018-07-02T08:53:01.508Z,31.92
2018-07-02T08:55:29.020Z,31.97
2018-07-02T08:57:56.484Z,31.84
2018-07-02T09:00:24.109Z,31.34
2018-07-02T09:02:51.953Z,31.36
2018-07-02T09:05:19.447Z,31.59
2018-07-02T09:07:46.896Z,31.70
2018-07-02T09:10:14.493Z,31.86
2018-07-02T09:12:42.002Z,31.91
2018-07-02T09:15:09.451Z,31.76
2018-07-02T09:17:37.030Z,31.86
2018-07-02T09:20:04.569Z,32.28
2018-07-02T09:22:32.064Z,32.36
2018-07-02T09:24:59.797Z,32.28
2018-07-02T09:27:27.437Z,31.98
2018-07-02T09:29:54.951Z,31.80
2018-07-02T09:32:22.525Z,31.93
2018-07-02T09:34:50.212Z,32.25
2018-07-02T09:37:17.459Z,32.62
2018-07-02T09:39:44.987Z,32.58
2018-07-02T09:42:12.489Z,32.40
2018-07-02T09:44:39.977Z,32.42
2018-07-02T09:47:07.521Z,32.56
2018-07-02T09:49:34.958Z,32.76
2018-07-02T09:52:02.488Z,33.15
2018-07-02T09:54:29.976Z,33.29
2018-07-02T09:56:57.501Z,33.15
2018-07-02T09:59:24.947Z,32.75
2018-07-02T10:01:53.017Z,33.02
2018-07-02T10:04:20.495Z,33.16
2018-07-02T10:06:48.035Z,33.31
2018-07-02T10:09:15.731Z,33.55
2018-07-02T10:11:43.458Z,33.61
2018-07-02T10:14:10.888Z,33.67
2018-07-02T10:16:38.413Z,33.63
2018-07-02T10:19:05.978Z,33.60
2018-07-02T10:21:33.438Z,33.69
2018-07-02T10:24:00.934Z,33.92
2018-07-02T10:26:28.428Z,33.72
2018-07-02T10:28:55.858Z,33.79
2018-07-02T10:31:23.516Z,34.18
2018-07-02T10:33:50.854Z,34.10
2018-07-02T10:36:18.401Z,34.16
2018-07-02T10:38:46.220Z,34.16
2018-07-02T10:41:13.883Z,34.11
2018-07-02T10:43:41.442Z,34.32
2018-07-02T10:46:09.392Z,34.61
2018-07-02T10:48:37.047Z,34.79
2018-07-02T10:51:04.595Z,34.86
2018-07-02T10:53:32.095Z,34.73
2018-07-02T10:56:00.107Z,34.61
2018-07-02T10:58:27.658Z,34.55
2018-07-02T11:00:55.109Z,34.47
2018-07-02T11:03:22.596Z,34.50
2018-07-02T11:05:50.159Z,34.44
2018-07-02T11:08:17.825Z,34.52
2018-07-02T11:10:45.452Z,34.93
2018-07-02T11:13:13.079Z,34.70
2018-07-02T11:15:40.593Z,34.55
2018-07-02T11:18:08.200Z,34.70
2018-07-02T11:20:35.680Z,34.62
2018-07-02T11:23:03.222Z,34.76
2018-07-02T11:25:30.655Z,34.80
2018-07-02T11:27:58.146Z,34.80
2018-07-02T11:30:25.649Z,34.85
2018-07-02T11:32:53.049Z,34.99
2018-07-02T11:35:21.477Z,34.91
2018-07-02T11:37:49.016Z,35.01
2018-07-02T11:40:16.489Z,35.11
2018-07-02T11:42:43.946Z,34.94
2018-07-02T11:45:11.384Z,35.10
2018-07-02T11:47:38.891Z,35.30
2018-07-02T11:50:06.397Z,35.38
2018-07-02T11:52:33.900Z,35.12
2018-07-02T11:55:01.358Z,35.32
2018-07-02T11:57:29.043Z,35.47
2018-07-02T11:59:56.469Z,35.50
2018-07-02T12:02:24.017Z,35.20
2018-07-02T12:04:52.818Z,35.16
2018-07-02T12:07:20.277Z,35.07
2018-07-02T12:09:47.825Z,35.18
2018-07-02T12:12:15.347Z,34.87
2018-07-02T12:14:43.484Z,34.96
2018-07-02T12:17:10.969Z,35.11
2018-07-02T12:19:38.453Z,34.97
2018-07-02T12:22:05.953Z,35.08
2018-07-02T12:24:33.377Z,35.42
2018-07-02T12:27:01.020Z,35.18
2018-07-02T12:29:28.479Z,35.21
2018-07-02T12:31:56.048Z,35.08
2018-07-02T12:34:23.515Z,35.05
2018-07-02T12:36:51.030Z,35.39
2018-07-02T12:39:18.501Z,35.34
2018-07-02T12:41:46.842Z,35.39
2018-07-02T12:44:14.338Z,35.21
2018-07-02T12:46:41.860Z,35.22
2018-07-02T12:49:09.230Z,35.02
2018-07-02T12:51:36.707Z,34.93
2018-07-02T12:54:04.287Z,35.10
2018-07-02T12:56:31.750Z,35.31
2018-07-02T12:58:59.685Z,35.43
2018-07-02T13:01:27.331Z,35.20
2018-07-02T13:03:55.167Z,35.12
2018-07-02T13:06:22.763Z,35.25
2018-07-02T13:08:50.247Z,35.34
2018-07-02T13:11:17.740Z,35.36
2018-07-02T13:13:45.192Z,35.45
2018-07-02T13:16:12.820Z,35.49
2018-07-02T13:18:40.244Z,35.59
2018-07-02T13:21:07.747Z,35.72
2018-07-02T13:23:35.310Z,35.76
2018-07-02T13:26:03.592Z,35.66
2018-07-02T13:28:31.127Z,35.47
2018-07-02T13:30:58.763Z,35.43
2018-07-02T13:33:26.267Z,35.51
2018-07-02T13:35:53.735Z,35.89
2018-07-02T13:38:21.190Z,35.75
2018-07-02T13:40:48.735Z,35.57
2018-07-02T13:43:16.213Z,35.38
2018-07-02T13:45:43.734Z,35.31
2018-07-02T13:48:11.383Z,35.27
2018-07-02T13:50:39.145Z,35.50
2018-07-02T13:53:06.612Z,35.55
2018-07-02T13:55:34.251Z,35.64
2018-07-02T13:58:01.712Z,35.58
2018-07-02T14:00:29.311Z,35.44
2018-07-02T14:02:56.748Z,35.30
2018-07-02T14:05:24.312Z,35.58
2018-07-02T14:07:51.830Z,35.48
2018-07-02T14:10:19.255Z,35.51
2018-07-02T14:12:47.268Z,35.41
2018-07-02T14:15:15.754Z,35.43
2018-07-02T14:17:43.278Z,35.57
2018-07-02T14:20:10.822Z,35.50
2018-07-02T14:22:38.268Z,35.14
2018-07-02T14:25:05.738Z,35.15
2018-07-02T14:27:33.299Z,35.12
2018-07-02T14:30:00.813Z,35.21
2018-07-02T14:32:28.339Z,35.39
2018-07-02T14:34:55.876Z,35.29
2018-07-02T14:37:23.332Z,35.30
2018-07-02T14:39:50.788Z,35.41
2018-07-02T14:42:18.325Z,35.30
2018-07-02T14:44:45.908Z,35.14
2018-07-02T14:47:13.438Z,35.12
2018-07-02T14:49:40.920Z,35.34
2018-07-02T14:52:08.444Z,35.36
2018-07-02T14:54:35.923Z,35.30
2018-07-02T14:57:03.380Z,35.00
2018-07-02T14:59:31.515Z,34.86
2018-07-02T15:01:59.159Z,34.78
2018-07-02T15:04:26.601Z,34.81
2018-07-02T15:06:54.126Z,34.91
2018-07-02T15:09:21.625Z,34.84
2018-07-02T15:11:49.200Z,34.94
2018-07-02T15:14:16.845Z,35.09
2018-07-02T15:16:44.263Z,35.03
2018-07-02T15:19:11.788Z,35.11
2018-07-02T15:21:39.255Z,35.32
2018-07-02T15:24:06.767Z,35.14
2018-07-02T15:26:34.269Z,34.85
2018-07-02T15:29:01.777Z,34.67
2018-07-02T15:31:29.372Z,34.63
2018-07-02T15:33:56.877Z,34.46
2018-07-02T15:36:24.750Z,34.66
2018-07-02T15:38:52.388Z,34.62
2018-07-02T15:41:19.967Z,34.45
2018-07-02T15:43:47.556Z,34.57
2018-07-02T15:46:15.078Z,34.54
2018-07-02T15:48:42.594Z,34.63
2018-07-02T15:51:10.091Z,34.71
2018-07-02T15:53:37.582Z,34.76
2018-07-02T15:56:05.035Z,34.74
2018-07-02T15:58:32.509Z,34.62
2018-07-02T16:00:59.963Z,34.47
2018-07-02T16:03:27.513Z,34.27
2018-07-02T16:05:55.075Z,34.29
2018-07-02T16:08:22.647Z,34.27
2018-07-02T16:10:50.091Z,34.41
2018-07-02T16:13:17.574Z,34.36
2018-07-02T16:15:45.043Z,34.20
2018-07-02T16:18:12.486Z,34.15
2018-07-02T16:20:40.045Z,34.16
2018-07-02T16:23:07.589Z,33.94
2018-07-02T16:25:35.103Z,33.95
2018-07-02T16:28:02.818Z,33.91
2018-07-02T16:30:30.292Z,33.94
2018-07-02T16:32:57.879Z,33.99
2018-07-02T16:35:25.381Z,33.86
2018-07-02T16:37:53.098Z,33.84
2018-07-02T16:40:20.681Z,33.97
2018-07-02T16:42:48.248Z,33.99
2018-07-02T16:45:15.661Z,34.04
2018-07-02T16:47:43.094Z,34.12
2018-07-02T16:50:10.542Z,33.98
2018-07-02T16:52:38.021Z,33.86
2018-07-02T16:55:05.577Z,33.87
2018-07-02T16:57:33.012Z,33.81
2018-07-02T17:00:00.615Z,33.89
2018-07-02T17:02:28.077Z,33.86
2018-07-02T17:04:55.804Z,33.93
2018-07-02T17:07:23.317Z,34.07
2018-07-02T17:09:50.860Z,33.97
2018-07-02T17:12:18.442Z,33.78
2018-07-02T17:14:46.007Z,33.54
2018-07-02T17:17:13.535Z,33.50
2018-07-02T17:19:41.096Z,33.31
2018-07-02T17:22:08.729Z,33.15
2018-07-02T17:24:36.159Z,33.13
2018-07-02T17:27:03.579Z,33.26
2018-07-02T17:29:31.058Z,33.25
2018-07-02T17:31:58.544Z,33.45
2018-07-02T17:34:26.313Z,33.44
2018-07-02T17:36:53.761Z,33.32
2018-07-02T17:39:21.185Z,33.31
2018-07-02T17:41:48.733Z,33.39
2018-07-02T17:44:16.166Z,33.41
2018-07-02T17:46:43.847Z,33.27
2018-07-02T17:49:11.427Z,33.21
2018-07-02T17:51:38.921Z,33.16
2018-07-02T17:54:06.413Z,33.27
2018-07-02T17:56:34.010Z,33.33
2018-07-02T17:59:01.539Z,33.23
2018-07-02T18:01:28.997Z,33.26
2018-07-02T18:03:56.541Z,33.21
2018-07-02T18:06:24.076Z,33.09
2018-07-02T18:08:51.522Z,33.18
2018-07-02T18:11:19.060Z,33.12
2018-07-02T18:13:46.635Z,33.10
2018-07-02T18:16:14.104Z,32.81
2018-07-02T18:18:41.543Z,32.73
2018-07-02T18:21:09.048Z,32.61
2018-07-02T18:23:36.509Z,32.60
2018-07-02T18:26:03.907Z,32.54
2018-07-02T18:28:31.327Z,32.55
2018-07-02T18:30:58.860Z,32.51
2018-07-02T18:33:26.318Z,32.47
2018-07-02T18:35:53.772Z,32.30
2018-07-02T18:38:21.201Z,32.21
2018-07-02T18:40:48.765Z,32.12
2018-07-02T18:43:17.181Z,32.10
2018-07-02T18:45:44.610Z,32.09
2018-07-02T18:48:12.069Z,32.10
2018-07-02T18:50:39.534Z,31.94
2018-07-02T18:53:07.094Z,31.90
2018-07-02T18:55:34.670Z,31.88
2018-07-02T18:58:02.146Z,31.81
2018-07-02T19:00:29.628Z,31.71
2018-07-02T19:02:57.393Z,31.60
2018-07-02T19:05:24.919Z,31.57
2018-07-02T19:07:52.731Z,31.56
2018-07-02T19:10:20.732Z,31.52
2018-07-02T19:12:49.670Z,31.49
2018-07-02T19:15:17.241Z,31.32
2018-07-02T19:17:44.765Z,31.25
2018-07-02T19:20:13.079Z,31.17
2018-07-02T19:22:40.634Z,31.07
2018-07-02T19:25:08.154Z,31.00
2018-07-02T19:27:35.596Z,30.89
2018-07-02T19:30:03.296Z,30.78
2018-07-02T19:32:30.902Z,30.68
2018-07-02T19:34:58.715Z,30.57
2018-07-02T19:37:26.192Z,30.52
2018-07-02T19:39:53.663Z,30.53
2018-07-02T19:42:21.921Z,30.52
2018-07-02T19:44:50.010Z,30.43
2018-07-02T19:47:17.467Z,30.37
2018-07-02T19:49:44.932Z,30.30
2018-07-02T19:52:12.563Z,30.19
2018-07-02T19:54:40.176Z,30.05
2018-07-02T19:57:07.701Z,30.00
2018-07-02T19:59:35.212Z,29.97
2018-07-02T20:02:02.711Z,29.90
2018-07-02T20:04:30.246Z,29.79
2018-07-02T20:06:57.822Z,29.75
2018-07-02T20:09:25.275Z,29.68
2018-07-02T20:11:52.743Z,29.59
2018-07-02T20:14:20.179Z,29.60
2018-07-02T20:16:47.705Z,29.60
2018-07-02T20:19:15.755Z,29.63
2018-07-02T20:21:43.154Z,29.59
2018-07-02T20:24:10.643Z,29.58
2018-07-02T20:26:38.114Z,29.56
2018-07-02T20:29:05.558Z,29.52
2018-07-02T20:31:33.026Z,29.47
2018-07-02T20:34:00.464Z,29.44
2018-07-02T20:36:27.957Z,29.37
2018-07-02T20:38:55.446Z,29.28
2018-07-02T20:41:22.933Z,29.26
2018-07-02T20:43:50.461Z,29.21
2018-07-02T20:46:18.196Z,29.14
2018-07-02T20:48:45.604Z,29.11
2018-07-02T20:51:13.134Z,29.06
2018-07-02T20:53:40.594Z,28.98
2018-07-02T20:56:08.081Z,28.95
2018-07-02T20:58:35.623Z,28.88
2018-07-02T21:01:03.090Z,28.80
2018-07-02T21:03:30.554Z,28.77
2018-07-02T21:05:57.983Z,28.72
2018-07-02T21:08:25.503Z,28.64
2018-07-02T21:10:52.955Z,28.50
2018-07-02T21:13:20.454Z,28.41
2018-07-02T21:15:47.897Z,28.35
2018-07-02T21:18:15.272Z,28.36
2018-07-02T21:20:42.693Z,28.37
2018-07-02T21:23:10.140Z,28.35
2018-07-02T21:25:37.571Z,28.37
2018-07-02T21:28:04.984Z,28.40
2018-07-02T21:30:32.442Z,28.40
2018-07-02T21:32:59.894Z,28.34
2018-07-02T21:35:27.346Z,28.23
2018-07-02T21:37:54.787Z,28.13
2018-07-02T21:40:22.215Z,28.08
2018-07-02T21:42:49.632Z,28.00
2018-07-02T21:45:17.121Z,28.02
2018-07-02T21:47:44.589Z,28.01
2018-07-02T21:50:12.132Z,28.04
2018-07-02T21:52:39.611Z,28.07
2018-07-02T21:55:07.077Z,28.10
2018-07-02T21:57:34.537Z,28.09
2018-07-02T22:00:01.943Z,28.12
2018-07-02T22:02:29.579Z,28.09
2018-07-02T22:04:56.994Z,28.06
2018-07-02T22:07:25.063Z,28.08
2018-07-02T22:09:52.508Z,28.07
2018-07-02T22:12:19.972Z,28.06
2018-07-02T22:14:47.425Z,28.02
2018-07-02T22:17:14.837Z,28.00
2018-07-02T22:19:42.294Z,27.96
2018-07-02T22:22:09.754Z,27.97
2018-07-02T22:24:37.219Z,27.88
2018-07-02T22:27:04.786Z,27.92
2018-07-02T22:29:32.235Z,27.95
2018-07-02T22:31:59.854Z,27.70
2018-07-02T22:34:27.297Z,27.39
2018-07-02T22:36:54.779Z,27.26
2018-07-02T22:39:22.203Z,27.23
2018-07-02T22:41:49.702Z,27.28
2018-07-02T22:44:17.103Z,27.34
2018-07-02T22:46:44.589Z,27.33
2018-07-02T22:49:12.116Z,27.33
2018-07-02T22:51:39.580Z,27.38
2018-07-02T22:54:07.169Z,27.33
2018-07-02T22:56:34.618Z,27.26
2018-07-02T22:59:02.322Z,27.23
2018-07-02T23:01:29.755Z,27.12
2018-07-02T23:03:57.241Z,27.12
2018-07-02T23:06:24.783Z,27.04
2018-07-02T23:08:52.227Z,26.97
2018-07-02T23:11:19.685Z,26.95
2018-07-02T23:13:47.132Z,26.92
2018-07-02T23:16:14.614Z,26.95
2018-07-02T23:18:42.229Z,26.92
2018-07-02T23:21:09.689Z,26.80
2018-07-02T23:23:37.179Z,26.57
2018-07-02T23:26:04.655Z,26.44
2018-07-02T23:28:32.120Z,26.41
2018-07-02T23:30:59.965Z,26.43
2018-07-02T23:33:27.447Z,26.34
2018-07-02T23:35:54.871Z,26.20
2018-07-02T23:38:22.363Z,26.08
2018-07-02T23:40:49.930Z,26.06
2018-07-02T23:43:17.388Z,26.08
2018-07-02T23:45:44.912Z,25.99
2018-07-02T23:48:12.458Z,25.93
2018-07-02T23:50:39.908Z,25.89
2018-07-02T23:53:07.378Z,25.94
2018-07-02T23:55:34.816Z,26.03
2018-07-02T23:58:02.248Z,26.14
